sensor_id;sensor_type;location;lat;lon;timestamp;P1;durP1;ratioP1;P2;durP2;ratioP2
21645;SDS011;10984;45.712;4.800;2022-12-18T00:01:20;31.73;;;13.98;;
21645;SDS011;10984;45.712;4.800;2022-12-18T00:03:48;27.17;;;13.10;;
21645;SDS011;10984;45.712;4.800;2022-12-18T00:06:14;28.63;;;12.60;;
21645;SDS011;10984;45.712;4.800;2022-12-18T00:08:41;27.05;;;12.07;;
21645;SDS011;10984;45.712;4.800;2022-12-18T00:11:08;25.50;;;12.93;;
21645;SDS011;10984;45.712;4.800;2022-12-18T00:13:37;28.27;;;12.23;;
21645;SDS011;10984;45.712;4.800;2022-12-18T00:16:03;28.58;;;11.13;;
21645;SDS011;10984;45.712;4.800;2022-12-18T00:18:30;29.92;;;13.45;;
21645;SDS011;10984;45.712;4.800;2022-12-18T00:23:42;25.48;;;12.10;;
21645;SDS011;10984;45.712;4.800;2022-12-18T00:28:54;27.40;;;11.95;;
21645;SDS011;10984;45.712;4.800;2022-12-18T00:31:23;28.85;;;11.55;;
21645;SDS011;10984;45.712;4.800;2022-12-18T00:33:50;29.05;;;11.18;;
21645;SDS011;10984;45.712;4.800;2022-12-18T00:39:00;26.10;;;10.73;;
21645;SDS011;10984;45.712;4.800;2022-12-18T00:41:28;28.42;;;12.68;;
21645;SDS011;10984;45.712;4.800;2022-12-18T00:44:13;27.73;;;11.55;;
21645;SDS011;10984;45.712;4.800;2022-12-18T00:46:40;32.22;;;12.93;;
21645;SDS011;10984;45.712;4.800;2022-12-18T00:49:07;31.70;;;12.05;;
21645;SDS011;10984;45.712;4.800;2022-12-18T00:51:33;30.42;;;12.38;;
21645;SDS011;10984;45.712;4.800;2022-12-18T00:53:58;34.75;;;14.57;;
21645;SDS011;10984;45.712;4.800;2022-12-18T00:56:24;29.02;;;13.32;;
21645;SDS011;10984;45.712;4.800;2022-12-18T00:58:50;30.45;;;13.35;;
21645;SDS011;10984;45.712;4.800;2022-12-18T01:01:16;30.52;;;12.23;;
21645;SDS011;10984;45.712;4.800;2022-12-18T01:03:42;32.47;;;13.00;;
21645;SDS011;10984;45.712;4.800;2022-12-18T01:06:10;25.38;;;11.52;;
21645;SDS011;10984;45.712;4.800;2022-12-18T01:08:37;29.65;;;11.90;;
21645;SDS011;10984;45.712;4.800;2022-12-18T01:13:47;28.05;;;12.40;;
21645;SDS011;10984;45.712;4.800;2022-12-18T01:16:14;28.60;;;12.38;;
21645;SDS011;10984;45.712;4.800;2022-12-18T01:18:41;31.35;;;13.07;;
21645;SDS011;10984;45.712;4.800;2022-12-18T01:21:08;31.85;;;13.70;;
21645;SDS011;10984;45.712;4.800;2022-12-18T01:23:35;32.65;;;12.43;;
21645;SDS011;10984;45.712;4.800;2022-12-18T01:28:45;30.17;;;12.05;;
21645;SDS011;10984;45.712;4.800;2022-12-18T01:33:57;35.22;;;13.63;;
21645;SDS011;10984;45.712;4.800;2022-12-18T01:36:26;28.90;;;13.45;;
21645;SDS011;10984;45.712;4.800;2022-12-18T01:38:54;31.25;;;13.10;;
21645;SDS011;10984;45.712;4.800;2022-12-18T01:41:24;27.80;;;10.70;;
21645;SDS011;10984;45.712;4.800;2022-12-18T01:47:16;28.48;;;13.20;;
21645;SDS011;10984;45.712;4.800;2022-12-18T01:49:46;30.75;;;11.25;;
21645;SDS011;10984;45.712;4.800;2022-12-18T01:52:12;30.48;;;13.02;;
21645;SDS011;10984;45.712;4.800;2022-12-18T01:54:39;27.83;;;12.55;;
21645;SDS011;10984;45.712;4.800;2022-12-18T01:57:04;28.08;;;11.45;;
21645;SDS011;10984;45.712;4.800;2022-12-18T01:59:31;25.83;;;11.80;;
21645;SDS011;10984;45.712;4.800;2022-12-18T02:01:58;30.40;;;12.77;;
21645;SDS011;10984;45.712;4.800;2022-12-18T02:04:25;26.88;;;10.88;;
21645;SDS011;10984;45.712;4.800;2022-12-18T02:06:55;31.15;;;12.68;;
21645;SDS011;10984;45.712;4.800;2022-12-18T02:18:36;30.80;;;12.05;;
21645;SDS011;10984;45.712;4.800;2022-12-18T02:27:29;25.20;;;10.35;;
21645;SDS011;10984;45.712;4.800;2022-12-18T02:29:57;28.45;;;11.50;;
21645;SDS011;10984;45.712;4.800;2022-12-18T02:32:30;25.67;;;10.43;;
21645;SDS011;10984;45.712;4.800;2022-12-18T02:34:59;28.40;;;11.77;;
21645;SDS011;10984;45.712;4.800;2022-12-18T02:37:27;28.63;;;11.65;;
21645;SDS011;10984;45.712;4.800;2022-12-18T02:39:55;33.65;;;11.85;;
21645;SDS011;10984;45.712;4.800;2022-12-18T02:42:23;23.08;;;11.40;;
21645;SDS011;10984;45.712;4.800;2022-12-18T02:44:51;24.25;;;10.88;;
21645;SDS011;10984;45.712;4.800;2022-12-18T02:47:22;28.20;;;11.93;;
21645;SDS011;10984;45.712;4.800;2022-12-18T03:04:15;26.38;;;12.45;;
21645;SDS011;10984;45.712;4.800;2022-12-18T03:07:02;25.02;;;10.70;;
21645;SDS011;10984;45.712;4.800;2022-12-18T03:15:03;25.05;;;10.23;;
21645;SDS011;10984;45.712;4.800;2022-12-18T03:17:34;24.35;;;11.45;;
21645;SDS011;10984;45.712;4.800;2022-12-18T03:22:46;30.02;;;12.02;;
21645;SDS011;10984;45.712;4.800;2022-12-18T03:25:17;23.75;;;10.45;;
21645;SDS011;10984;45.712;4.800;2022-12-18T03:27:46;25.40;;;11.75;;
21645;SDS011;10984;45.712;4.800;2022-12-18T03:30:14;25.27;;;10.23;;
21645;SDS011;10984;45.712;4.800;2022-12-18T03:32:43;27.20;;;11.13;;
21645;SDS011;10984;45.712;4.800;2022-12-18T03:35:10;29.35;;;10.85;;
21645;SDS011;10984;45.712;4.800;2022-12-18T03:37:38;26.70;;;10.95;;
21645;SDS011;10984;45.712;4.800;2022-12-18T03:40:04;27.00;;;10.23;;
21645;SDS011;10984;45.712;4.800;2022-12-18T03:56:21;21.33;;;9.85;;
21645;SDS011;10984;45.712;4.800;2022-12-18T03:58:49;21.52;;;10.20;;
21645;SDS011;10984;45.712;4.800;2022-12-18T04:01:17;26.20;;;10.50;;
21645;SDS011;10984;45.712;4.800;2022-12-18T04:03:44;23.38;;;10.38;;
21645;SDS011;10984;45.712;4.800;2022-12-18T04:06:13;26.83;;;10.13;;
21645;SDS011;10984;45.712;4.800;2022-12-18T04:08:40;26.08;;;10.50;;
21645;SDS011;10984;45.712;4.800;2022-12-18T04:11:06;23.05;;;11.57;;
21645;SDS011;10984;45.712;4.800;2022-12-18T04:13:33;24.77;;;10.68;;
21645;SDS011;10984;45.712;4.800;2022-12-18T04:16:01;21.08;;;9.65;;
21645;SDS011;10984;45.712;4.800;2022-12-18T04:18:26;26.20;;;10.43;;
21645;SDS011;10984;45.712;4.800;2022-12-18T04:20:52;25.48;;;11.52;;
21645;SDS011;10984;45.712;4.800;2022-12-18T04:23:18;23.90;;;10.35;;
21645;SDS011;10984;45.712;4.800;2022-12-18T04:25:43;23.88;;;10.13;;
21645;SDS011;10984;45.712;4.800;2022-12-18T04:28:10;21.80;;;10.20;;
21645;SDS011;10984;45.712;4.800;2022-12-18T04:30:35;24.92;;;9.93;;
21645;SDS011;10984;45.712;4.800;2022-12-18T04:33:01;21.80;;;9.63;;
21645;SDS011;10984;45.712;4.800;2022-12-18T04:35:27;26.20;;;9.27;;
21645;SDS011;10984;45.712;4.800;2022-12-18T04:37:52;23.90;;;10.57;;
21645;SDS011;10984;45.712;4.800;2022-12-18T04:40:18;23.25;;;10.23;;
21645;SDS011;10984;45.712;4.800;2022-12-18T04:42:43;23.58;;;10.35;;
21645;SDS011;10984;45.712;4.800;2022-12-18T04:45:09;25.38;;;11.25;;
21645;SDS011;10984;45.712;4.800;2022-12-18T04:47:35;27.25;;;11.48;;
21645;SDS011;10984;45.712;4.800;2022-12-18T04:50:01;24.98;;;10.45;;
21645;SDS011;10984;45.712;4.800;2022-12-18T04:52:26;22.95;;;10.75;;
21645;SDS011;10984;45.712;4.800;2022-12-18T04:54:52;23.42;;;10.45;;
21645;SDS011;10984;45.712;4.800;2022-12-18T04:57:17;23.88;;;9.93;;
21645;SDS011;10984;45.712;4.800;2022-12-18T04:59:44;23.23;;;10.20;;
21645;SDS011;10984;45.712;4.800;2022-12-18T05:02:10;26.30;;;11.45;;
21645;SDS011;10984;45.712;4.800;2022-12-18T05:04:35;25.15;;;10.55;;
21645;SDS011;10984;45.712;4.800;2022-12-18T05:07:01;24.38;;;10.23;;
21645;SDS011;10984;45.712;4.800;2022-12-18T05:09:27;23.13;;;10.32;;
21645;SDS011;10984;45.712;4.800;2022-12-18T05:11:52;29.85;;;11.18;;
21645;SDS011;10984;45.712;4.800;2022-12-18T05:14:18;25.65;;;10.65;;
21645;SDS011;10984;45.712;4.800;2022-12-18T05:16:44;23.55;;;11.25;;
21645;SDS011;10984;45.712;4.800;2022-12-18T05:19:10;25.20;;;10.27;;
21645;SDS011;10984;45.712;4.800;2022-12-18T05:21:35;21.48;;;10.38;;
21645;SDS011;10984;45.712;4.800;2022-12-18T05:24:01;28.77;;;12.13;;
21645;SDS011;10984;45.712;4.800;2022-12-18T05:26:27;28.85;;;11.75;;
21645;SDS011;10984;45.712;4.800;2022-12-18T05:28:52;31.33;;;12.73;;
21645;SDS011;10984;45.712;4.800;2022-12-18T05:31:21;23.85;;;10.10;;
21645;SDS011;10984;45.712;4.800;2022-12-18T05:33:49;26.30;;;11.65;;
21645;SDS011;10984;45.712;4.800;2022-12-18T05:36:14;28.08;;;11.40;;
21645;SDS011;10984;45.712;4.800;2022-12-18T05:38:40;23.35;;;10.48;;
21645;SDS011;10984;45.712;4.800;2022-12-18T05:41:06;22.63;;;9.07;;
21645;SDS011;10984;45.712;4.800;2022-12-18T05:43:34;24.63;;;10.68;;
21645;SDS011;10984;45.712;4.800;2022-12-18T05:48:44;23.80;;;10.25;;
21645;SDS011;10984;45.712;4.800;2022-12-18T05:51:12;28.13;;;10.68;;
21645;SDS011;10984;45.712;4.800;2022-12-18T05:53:40;24.85;;;12.05;;
21645;SDS011;10984;45.712;4.800;2022-12-18T05:56:08;23.83;;;9.82;;
21645;SDS011;10984;45.712;4.800;2022-12-18T05:58:35;23.92;;;10.65;;
21645;SDS011;10984;45.712;4.800;2022-12-18T06:03:47;22.98;;;10.30;;
21645;SDS011;10984;45.712;4.800;2022-12-18T06:06:15;20.80;;;9.15;;
21645;SDS011;10984;45.712;4.800;2022-12-18T06:08:51;22.67;;;10.15;;
21645;SDS011;10984;45.712;4.800;2022-12-18T06:11:21;25.20;;;10.80;;
21645;SDS011;10984;45.712;4.800;2022-12-18T06:16:33;22.48;;;9.73;;
21645;SDS011;10984;45.712;4.800;2022-12-18T06:18:59;23.33;;;10.20;;
21645;SDS011;10984;45.712;4.800;2022-12-18T06:21:27;20.30;;;10.88;;
21645;SDS011;10984;45.712;4.800;2022-12-18T06:23:53;26.55;;;11.25;;
21645;SDS011;10984;45.712;4.800;2022-12-18T06:26:19;25.90;;;11.45;;
21645;SDS011;10984;45.712;4.800;2022-12-18T06:28:45;20.73;;;10.48;;
21645;SDS011;10984;45.712;4.800;2022-12-18T06:31:11;25.17;;;10.90;;
21645;SDS011;10984;45.712;4.800;2022-12-18T06:33:37;21.85;;;9.65;;
21645;SDS011;10984;45.712;4.800;2022-12-18T06:36:04;22.00;;;10.18;;
21645;SDS011;10984;45.712;4.800;2022-12-18T06:38:48;22.00;;;9.45;;
21645;SDS011;10984;45.712;4.800;2022-12-18T06:41:18;32.92;;;11.88;;
21645;SDS011;10984;45.712;4.800;2022-12-18T06:43:45;29.88;;;11.07;;
21645;SDS011;10984;45.712;4.800;2022-12-18T06:46:11;23.92;;;11.27;;
21645;SDS011;10984;45.712;4.800;2022-12-18T06:48:37;26.08;;;11.30;;
21645;SDS011;10984;45.712;4.800;2022-12-18T06:51:02;25.15;;;11.18;;
21645;SDS011;10984;45.712;4.800;2022-12-18T06:53:28;23.42;;;10.10;;
21645;SDS011;10984;45.712;4.800;2022-12-18T06:58:39;22.88;;;10.63;;
21645;SDS011;10984;45.712;4.800;2022-12-18T07:01:05;29.15;;;11.52;;
21645;SDS011;10984;45.712;4.800;2022-12-18T07:03:33;26.10;;;10.18;;
21645;SDS011;10984;45.712;4.800;2022-12-18T07:05:59;28.38;;;11.82;;
21645;SDS011;10984;45.712;4.800;2022-12-18T07:08:25;25.00;;;11.10;;
21645;SDS011;10984;45.712;4.800;2022-12-18T07:10:50;26.83;;;10.55;;
21645;SDS011;10984;45.712;4.800;2022-12-18T07:13:16;23.27;;;10.82;;
21645;SDS011;10984;45.712;4.800;2022-12-18T07:15:42;24.50;;;10.90;;
21645;SDS011;10984;45.712;4.800;2022-12-18T07:18:08;29.33;;;12.65;;
21645;SDS011;10984;45.712;4.800;2022-12-18T07:20:34;28.88;;;10.93;;
21645;SDS011;10984;45.712;4.800;2022-12-18T07:25:45;26.17;;;10.68;;
21645;SDS011;10984;45.712;4.800;2022-12-18T07:28:10;27.58;;;11.55;;
21645;SDS011;10984;45.712;4.800;2022-12-18T07:30:37;26.80;;;10.65;;
21645;SDS011;10984;45.712;4.800;2022-12-18T07:33:03;22.58;;;10.10;;
21645;SDS011;10984;45.712;4.800;2022-12-18T07:35:29;26.33;;;11.63;;
21645;SDS011;10984;45.712;4.800;2022-12-18T07:37:54;27.50;;;12.18;;
21645;SDS011;10984;45.712;4.800;2022-12-18T07:40:20;24.27;;;10.73;;
21645;SDS011;10984;45.712;4.800;2022-12-18T07:42:46;24.88;;;10.55;;
21645;SDS011;10984;45.712;4.800;2022-12-18T07:45:11;24.15;;;10.70;;
21645;SDS011;10984;45.712;4.800;2022-12-18T07:47:37;23.67;;;9.68;;
21645;SDS011;10984;45.712;4.800;2022-12-18T07:50:03;25.48;;;11.07;;
21645;SDS011;10984;45.712;4.800;2022-12-18T07:52:30;26.20;;;10.80;;
21645;SDS011;10984;45.712;4.800;2022-12-18T07:54:55;29.48;;;11.50;;
21645;SDS011;10984;45.712;4.800;2022-12-18T07:57:21;27.38;;;12.52;;
21645;SDS011;10984;45.712;4.800;2022-12-18T07:59:47;25.35;;;11.32;;
21645;SDS011;10984;45.712;4.800;2022-12-18T08:02:12;26.65;;;11.63;;
21645;SDS011;10984;45.712;4.800;2022-12-18T08:04:38;28.35;;;12.15;;
21645;SDS011;10984;45.712;4.800;2022-12-18T08:07:04;29.30;;;11.98;;
21645;SDS011;10984;45.712;4.800;2022-12-18T08:09:29;31.48;;;12.55;;
21645;SDS011;10984;45.712;4.800;2022-12-18T08:11:55;26.15;;;11.52;;
21645;SDS011;10984;45.712;4.800;2022-12-18T08:14:21;30.95;;;12.95;;
21645;SDS011;10984;45.712;4.800;2022-12-18T08:16:46;33.10;;;11.88;;
21645;SDS011;10984;45.712;4.800;2022-12-18T08:19:12;36.15;;;13.35;;
21645;SDS011;10984;45.712;4.800;2022-12-18T08:21:41;34.00;;;13.55;;
21645;SDS011;10984;45.712;4.800;2022-12-18T08:24:08;27.30;;;11.63;;
21645;SDS011;10984;45.712;4.800;2022-12-18T08:26:35;30.20;;;12.07;;
21645;SDS011;10984;45.712;4.800;2022-12-18T08:29:00;28.48;;;11.98;;
21645;SDS011;10984;45.712;4.800;2022-12-18T08:31:27;28.45;;;10.20;;
21645;SDS011;10984;45.712;4.800;2022-12-18T08:33:54;31.73;;;11.90;;
21645;SDS011;10984;45.712;4.800;2022-12-18T08:36:20;29.60;;;11.55;;
21645;SDS011;10984;45.712;4.800;2022-12-18T08:38:46;28.80;;;11.77;;
21645;SDS011;10984;45.712;4.800;2022-12-18T08:41:13;36.88;;;14.45;;
21645;SDS011;10984;45.712;4.800;2022-12-18T08:43:40;31.70;;;12.20;;
21645;SDS011;10984;45.712;4.800;2022-12-18T08:46:26;31.98;;;12.48;;
21645;SDS011;10984;45.712;4.800;2022-12-18T08:48:56;34.53;;;13.70;;
21645;SDS011;10984;45.712;4.800;2022-12-18T08:51:21;29.50;;;12.88;;
21645;SDS011;10984;45.712;4.800;2022-12-18T08:53:47;30.10;;;11.82;;
21645;SDS011;10984;45.712;4.800;2022-12-18T08:56:13;30.08;;;11.23;;
21645;SDS011;10984;45.712;4.800;2022-12-18T08:58:40;31.77;;;11.98;;
21645;SDS011;10984;45.712;4.800;2022-12-18T09:01:07;28.80;;;12.10;;
21645;SDS011;10984;45.712;4.800;2022-12-18T09:03:34;31.45;;;12.32;;
21645;SDS011;10984;45.712;4.800;2022-12-18T09:06:00;31.90;;;12.82;;
21645;SDS011;10984;45.712;4.800;2022-12-18T09:08:27;31.27;;;11.82;;
21645;SDS011;10984;45.712;4.800;2022-12-18T09:10:53;31.52;;;13.30;;
21645;SDS011;10984;45.712;4.800;2022-12-18T09:13:19;26.83;;;11.10;;
21645;SDS011;10984;45.712;4.800;2022-12-18T09:15:46;35.63;;;13.05;;
21645;SDS011;10984;45.712;4.800;2022-12-18T09:18:14;31.80;;;13.88;;
21645;SDS011;10984;45.712;4.800;2022-12-18T09:20:41;29.98;;;12.73;;
21645;SDS011;10984;45.712;4.800;2022-12-18T09:23:07;27.40;;;11.68;;
21645;SDS011;10984;45.712;4.800;2022-12-18T09:25:34;27.73;;;11.35;;
21645;SDS011;10984;45.712;4.800;2022-12-18T09:30:47;28.50;;;13.20;;
21645;SDS011;10984;45.712;4.800;2022-12-18T09:33:14;26.80;;;11.48;;
21645;SDS011;10984;45.712;4.800;2022-12-18T09:35:40;32.95;;;12.65;;
21645;SDS011;10984;45.712;4.800;2022-12-18T09:38:07;24.25;;;11.32;;
21645;SDS011;10984;45.712;4.800;2022-12-18T09:40:39;31.00;;;12.82;;
21645;SDS011;10984;45.712;4.800;2022-12-18T09:43:35;26.58;;;11.32;;
21645;SDS011;10984;45.712;4.800;2022-12-18T09:46:07;25.92;;;12.65;;
21645;SDS011;10984;45.712;4.800;2022-12-18T09:51:27;27.42;;;11.40;;
21645;SDS011;10984;45.712;4.800;2022-12-18T09:53:56;30.50;;;12.82;;
21645;SDS011;10984;45.712;4.800;2022-12-18T09:56:27;32.33;;;12.77;;
21645;SDS011;10984;45.712;4.800;2022-12-18T09:58:57;28.90;;;13.07;;
21645;SDS011;10984;45.712;4.800;2022-12-18T10:01:24;26.52;;;11.73;;
21645;SDS011;10984;45.712;4.800;2022-12-18T10:03:52;31.98;;;12.35;;
21645;SDS011;10984;45.712;4.800;2022-12-18T10:09:06;29.17;;;13.15;;
21645;SDS011;10984;45.712;4.800;2022-12-18T10:14:59;29.65;;;12.65;;
21645;SDS011;10984;45.712;4.800;2022-12-18T10:26:26;29.60;;;13.32;;
21645;SDS011;10984;45.712;4.800;2022-12-18T10:28:52;32.55;;;13.30;;
21645;SDS011;10984;45.712;4.800;2022-12-18T10:34:03;28.27;;;12.82;;
21645;SDS011;10984;45.712;4.800;2022-12-18T10:36:29;32.20;;;14.23;;
21645;SDS011;10984;45.712;4.800;2022-12-18T10:39:00;34.72;;;15.00;;
21645;SDS011;10984;45.712;4.800;2022-12-18T10:41:50;35.30;;;14.02;;
21645;SDS011;10984;45.712;4.800;2022-12-18T10:52:29;31.80;;;12.75;;
21645;SDS011;10984;45.712;4.800;2022-12-18T10:54:57;34.88;;;14.02;;
21645;SDS011;10984;45.712;4.800;2022-12-18T11:02:55;30.25;;;11.95;;
21645;SDS011;10984;45.712;4.800;2022-12-18T11:08:11;31.75;;;12.77;;
21645;SDS011;10984;45.712;4.800;2022-12-18T11:10:46;32.30;;;13.30;;
21645;SDS011;10984;45.712;4.800;2022-12-18T11:13:21;32.15;;;12.50;;
21645;SDS011;10984;45.712;4.800;2022-12-18T11:15:48;29.92;;;11.85;;
21645;SDS011;10984;45.712;4.800;2022-12-18T11:18:25;27.13;;;12.48;;
21645;SDS011;10984;45.712;4.800;2022-12-18T11:23:44;29.65;;;13.02;;
21645;SDS011;10984;45.712;4.800;2022-12-18T11:26:14;26.73;;;11.00;;
21645;SDS011;10984;45.712;4.800;2022-12-18T11:33:58;28.35;;;12.95;;
21645;SDS011;10984;45.712;4.800;2022-12-18T11:36:25;28.83;;;12.38;;
21645;SDS011;10984;45.712;4.800;2022-12-18T11:38:56;28.27;;;12.52;;
21645;SDS011;10984;45.712;4.800;2022-12-18T12:04:33;27.92;;;12.00;;
21645;SDS011;10984;45.712;4.800;2022-12-18T12:16:15;29.63;;;12.73;;
21645;SDS011;10984;45.712;4.800;2022-12-18T12:21:47;29.35;;;11.85;;
21645;SDS011;10984;45.712;4.800;2022-12-18T12:30:09;27.08;;;11.10;;
21645;SDS011;10984;45.712;4.800;2022-12-18T12:41:12;31.33;;;13.07;;
21645;SDS011;10984;45.712;4.800;2022-12-18T12:44:01;25.13;;;11.05;;
21645;SDS011;10984;45.712;4.800;2022-12-18T12:46:30;26.23;;;12.63;;
21645;SDS011;10984;45.712;4.800;2022-12-18T12:49:03;21.60;;;11.10;;
21645;SDS011;10984;45.712;4.800;2022-12-18T12:51:40;22.58;;;11.63;;
21645;SDS011;10984;45.712;4.800;2022-12-18T12:56:57;28.55;;;12.07;;
21645;SDS011;10984;45.712;4.800;2022-12-18T13:14:22;29.25;;;13.15;;
21645;SDS011;10984;45.712;4.800;2022-12-18T13:16:51;29.98;;;12.60;;
21645;SDS011;10984;45.712;4.800;2022-12-18T13:22:01;23.13;;;11.40;;
21645;SDS011;10984;45.712;4.800;2022-12-18T13:24:27;24.38;;;11.80;;
21645;SDS011;10984;45.712;4.800;2022-12-18T13:26:56;30.25;;;13.93;;
21645;SDS011;10984;45.712;4.800;2022-12-18T13:29:43;29.92;;;13.23;;
21645;SDS011;10984;45.712;4.800;2022-12-18T13:37:56;33.42;;;13.35;;
21645;SDS011;10984;45.712;4.800;2022-12-18T13:51:39;26.67;;;13.23;;
21645;SDS011;10984;45.712;4.800;2022-12-18T13:59:52;26.38;;;11.13;;
21645;SDS011;10984;45.712;4.800;2022-12-18T14:05:03;24.25;;;10.25;;
21645;SDS011;10984;45.712;4.800;2022-12-18T14:07:29;22.58;;;10.07;;
21645;SDS011;10984;45.712;4.800;2022-12-18T14:09:57;23.60;;;11.75;;
21645;SDS011;10984;45.712;4.800;2022-12-18T14:12:27;27.52;;;11.43;;
21645;SDS011;10984;45.712;4.800;2022-12-18T14:21:30;24.60;;;11.35;;
21645;SDS011;10984;45.712;4.800;2022-12-18T14:26:41;21.40;;;10.80;;
21645;SDS011;10984;45.712;4.800;2022-12-18T14:34:41;6.63;;;3.38;;
21645;SDS011;10984;45.712;4.800;2022-12-18T14:37:26;7.57;;;3.22;;
21645;SDS011;10984;45.712;4.800;2022-12-18T14:40:02;5.65;;;2.35;;
21645;SDS011;10984;45.712;4.800;2022-12-18T14:42:30;5.32;;;2.00;;
21645;SDS011;10984;45.712;4.800;2022-12-18T14:51:12;4.93;;;1.55;;
21645;SDS011;10984;45.712;4.800;2022-12-18T14:53:41;3.75;;;1.73;;
21645;SDS011;10984;45.712;4.800;2022-12-18T15:08:24;4.82;;;1.92;;
21645;SDS011;10984;45.712;4.800;2022-12-18T15:10:55;4.97;;;2.50;;
21645;SDS011;10984;45.712;4.800;2022-12-18T15:13:23;4.57;;;2.10;;
21645;SDS011;10984;45.712;4.800;2022-12-18T15:15:50;6.72;;;2.25;;
21645;SDS011;10984;45.712;4.800;2022-12-18T15:23:50;4.45;;;1.60;;
21645;SDS011;10984;45.712;4.800;2022-12-18T15:26:18;3.38;;;1.30;;
21645;SDS011;10984;45.712;4.800;2022-12-18T15:31:31;3.72;;;1.27;;
21645;SDS011;10984;45.712;4.800;2022-12-18T15:34:01;4.07;;;1.55;;
21645;SDS011;10984;45.712;4.800;2022-12-18T15:36:28;2.67;;;1.20;;
21645;SDS011;10984;45.712;4.800;2022-12-18T15:38:55;3.58;;;1.13;;
21645;SDS011;10984;45.712;4.800;2022-12-18T15:41:22;4.57;;;1.40;;
21645;SDS011;10984;45.712;4.800;2022-12-18T15:43:49;1.95;;;0.90;;
21645;SDS011;10984;45.712;4.800;2022-12-18T15:46:17;3.42;;;1.30;;
21645;SDS011;10984;45.712;4.800;2022-12-18T15:48:45;5.25;;;1.65;;
21645;SDS011;10984;45.712;4.800;2022-12-18T15:54:15;3.45;;;1.60;;
21645;SDS011;10984;45.712;4.800;2022-12-18T15:56:41;5.90;;;1.73;;
21645;SDS011;10984;45.712;4.800;2022-12-18T15:59:26;3.40;;;1.20;;
21645;SDS011;10984;45.712;4.800;2022-12-18T16:01:52;4.75;;;1.73;;
21645;SDS011;10984;45.712;4.800;2022-12-18T16:04:19;3.13;;;1.45;;
21645;SDS011;10984;45.712;4.800;2022-12-18T16:06:45;6.75;;;1.42;;
21645;SDS011;10984;45.712;4.800;2022-12-18T16:09:11;2.80;;;1.30;;
21645;SDS011;10984;45.712;4.800;2022-12-18T16:11:37;3.60;;;1.80;;
21645;SDS011;10984;45.712;4.800;2022-12-18T16:16:53;2.80;;;1.20;;
21645;SDS011;10984;45.712;4.800;2022-12-18T16:19:21;3.97;;;1.55;;
21645;SDS011;10984;45.712;4.800;2022-12-18T16:21:48;4.43;;;1.73;;
21645;SDS011;10984;45.712;4.800;2022-12-18T16:24:16;3.70;;;1.70;;
21645;SDS011;10984;45.712;4.800;2022-12-18T16:26:43;4.32;;;2.03;;
21645;SDS011;10984;45.712;4.800;2022-12-18T16:29:10;4.97;;;1.95;;
21645;SDS011;10984;45.712;4.800;2022-12-18T16:31:36;3.88;;;1.70;;
21645;SDS011;10984;45.712;4.800;2022-12-18T16:37:07;4.60;;;1.70;;
21645;SDS011;10984;45.712;4.800;2022-12-18T16:39:33;4.50;;;1.92;;
21645;SDS011;10984;45.712;4.800;2022-12-18T16:42:00;4.82;;;2.10;;
21645;SDS011;10984;45.712;4.800;2022-12-18T16:44:30;4.38;;;2.00;;
21645;SDS011;10984;45.712;4.800;2022-12-18T16:46:56;5.75;;;2.08;;
21645;SDS011;10984;45.712;4.800;2022-12-18T16:49:26;5.57;;;1.75;;
21645;SDS011;10984;45.712;4.800;2022-12-18T16:51:52;4.63;;;2.00;;
21645;SDS011;10984;45.712;4.800;2022-12-18T16:54:18;3.33;;;1.50;;
21645;SDS011;10984;45.712;4.800;2022-12-18T16:56:44;6.28;;;1.77;;
21645;SDS011;10984;45.712;4.800;2022-12-18T16:59:13;3.95;;;1.60;;
21645;SDS011;10984;45.712;4.800;2022-12-18T17:01:39;4.32;;;1.63;;
21645;SDS011;10984;45.712;4.800;2022-12-18T17:04:05;5.07;;;2.00;;
21645;SDS011;10984;45.712;4.800;2022-12-18T17:06:32;3.88;;;1.65;;
21645;SDS011;10984;45.712;4.800;2022-12-18T17:09:01;8.30;;;1.80;;
21645;SDS011;10984;45.712;4.800;2022-12-18T17:11:30;4.32;;;1.92;;
21645;SDS011;10984;45.712;4.800;2022-12-18T17:13:57;4.15;;;1.75;;
21645;SDS011;10984;45.712;4.800;2022-12-18T17:16:23;2.55;;;1.50;;
21645;SDS011;10984;45.712;4.800;2022-12-18T17:18:51;8.98;;;1.63;;
21645;SDS011;10984;45.712;4.800;2022-12-18T17:21:17;3.35;;;1.58;;
21645;SDS011;10984;45.712;4.800;2022-12-18T17:23:43;3.97;;;1.80;;
21645;SDS011;10984;45.712;4.800;2022-12-18T17:26:09;5.43;;;2.05;;
21645;SDS011;10984;45.712;4.800;2022-12-18T17:28:37;6.20;;;2.28;;
21645;SDS011;10984;45.712;4.800;2022-12-18T17:33:50;5.35;;;2.30;;
21645;SDS011;10984;45.712;4.800;2022-12-18T17:36:16;7.38;;;2.03;;
21645;SDS011;10984;45.712;4.800;2022-12-18T17:38:43;4.63;;;1.80;;
21645;SDS011;10984;45.712;4.800;2022-12-18T17:41:32;4.25;;;2.13;;
21645;SDS011;10984;45.712;4.800;2022-12-18T17:44:00;5.70;;;1.80;;
21645;SDS011;10984;45.712;4.800;2022-12-18T17:46:30;4.45;;;1.77;;
21645;SDS011;10984;45.712;4.800;2022-12-18T17:48:57;7.45;;;2.20;;
21645;SDS011;10984;45.712;4.800;2022-12-18T17:51:23;5.88;;;1.98;;
21645;SDS011;10984;45.712;4.800;2022-12-18T17:53:49;3.47;;;1.67;;
21645;SDS011;10984;45.712;4.800;2022-12-18T17:56:16;4.78;;;1.85;;
21645;SDS011;10984;45.712;4.800;2022-12-18T17:58:44;4.35;;;1.83;;
21645;SDS011;10984;45.712;4.800;2022-12-18T18:01:11;3.85;;;1.92;;
21645;SDS011;10984;45.712;4.800;2022-12-18T18:03:38;5.03;;;1.60;;
21645;SDS011;10984;45.712;4.800;2022-12-18T18:06:05;5.38;;;1.85;;
21645;SDS011;10984;45.712;4.800;2022-12-18T18:08:31;4.93;;;1.95;;
21645;SDS011;10984;45.712;4.800;2022-12-18T18:10:58;4.32;;;2.00;;
21645;SDS011;10984;45.712;4.800;2022-12-18T18:13:48;8.23;;;2.17;;
21645;SDS011;10984;45.712;4.800;2022-12-18T18:16:34;4.90;;;2.40;;
21645;SDS011;10984;45.712;4.800;2022-12-18T18:19:19;8.00;;;2.42;;
21645;SDS011;10984;45.712;4.800;2022-12-18T18:21:47;6.15;;;2.97;;
21645;SDS011;10984;45.712;4.800;2022-12-18T18:24:15;6.35;;;2.00;;
21645;SDS011;10984;45.712;4.800;2022-12-18T18:26:42;7.15;;;2.33;;
21645;SDS011;10984;45.712;4.800;2022-12-18T18:29:11;4.38;;;2.33;;
21645;SDS011;10984;45.712;4.800;2022-12-18T18:31:40;9.55;;;2.15;;
21645;SDS011;10984;45.712;4.800;2022-12-18T18:34:06;5.10;;;1.67;;
21645;SDS011;10984;45.712;4.800;2022-12-18T18:36:38;6.05;;;1.83;;
21645;SDS011;10984;45.712;4.800;2022-12-18T18:39:03;7.95;;;2.38;;
21645;SDS011;10984;45.712;4.800;2022-12-18T18:41:29;4.50;;;1.52;;
21645;SDS011;10984;45.712;4.800;2022-12-18T18:43:55;6.90;;;1.85;;
21645;SDS011;10984;45.712;4.800;2022-12-18T18:46:22;4.20;;;1.38;;
21645;SDS011;10984;45.712;4.800;2022-12-18T18:48:48;3.92;;;1.58;;
21645;SDS011;10984;45.712;4.800;2022-12-18T18:51:14;3.38;;;1.30;;
21645;SDS011;10984;45.712;4.800;2022-12-18T18:53:43;5.28;;;1.30;;
21645;SDS011;10984;45.712;4.800;2022-12-18T18:56:12;5.95;;;1.63;;
21645;SDS011;10984;45.712;4.800;2022-12-18T18:58:40;4.18;;;1.70;;
21645;SDS011;10984;45.712;4.800;2022-12-18T19:01:07;3.78;;;1.35;;
21645;SDS011;10984;45.712;4.800;2022-12-18T19:03:52;3.35;;;1.60;;
21645;SDS011;10984;45.712;4.800;2022-12-18T19:06:20;3.05;;;1.50;;
21645;SDS011;10984;45.712;4.800;2022-12-18T19:09:05;4.05;;;1.88;;
21645;SDS011;10984;45.712;4.800;2022-12-18T19:11:31;4.35;;;1.88;;
21645;SDS011;10984;45.712;4.800;2022-12-18T19:14:15;5.65;;;1.52;;
21645;SDS011;10984;45.712;4.800;2022-12-18T19:16:41;3.42;;;1.27;;